< < Back
Terminal Aerodrome Forecast


Current Version              Previous Versions:   1  2  3  4  5  6  7  8  9  

Terminal Aerodrome Forecast

215
FTUS42 KCAE 281740
TAFCAE
TAF
KCAE 281740Z 2818/2918 08007KT P6SM BKN040 BKN060
     FM282000 08005KT P6SM VCSH SCT025 BKN035
     FM290000 07008KT 5SM -SHRA BR SCT025 OVC035
     FM290400 04005KT 4SM SHRA BR BKN020 OVC040
     FM291400 35009G17KT 5SM -SHRA BR SCT010 BKN020 OVC040=



Latest METAR

939
SAUS80 KWBC 282300
MTRCAE
METAR KCAE 282256Z 05006KT 8SM -RA FEW012 SCT070 BKN110 23/21 A3011 RMK
AO2 PK WND 11028/2205 RAB31 SLP194 P0001 T02330206


USA.gov is the U.S. government's official web portal to all federal, state and local government web resources and services.